createdAt,value
2023-04-16T00:00:50.471Z,99.58
2023-04-16T00:03:20.231Z,99.90
2023-04-16T00:05:48.346Z,99.75
2023-04-16T00:08:16.426Z,99.75
2023-04-16T00:10:44.528Z,99.07
2023-04-16T00:13:12.477Z,99.57
2023-04-16T00:15:41.586Z,100.00
2023-04-16T00:18:09.539Z,99.83
2023-04-16T00:20:38.884Z,99.31
2023-04-16T00:23:06.837Z,98.97
2023-04-16T00:25:34.763Z,99.77
2023-04-16T00:28:02.878Z,99.36
2023-04-16T00:30:30.883Z,99.54
2023-04-16T00:32:58.915Z,99.78
2023-04-16T00:35:27.083Z,99.33
2023-04-16T00:37:56.461Z,99.30
2023-04-16T00:40:24.757Z,99.82
2023-04-16T00:42:52.997Z,99.71
2023-04-16T00:45:21.259Z,100.00
2023-04-16T00:47:49.256Z,100.00
2023-04-16T00:50:17.588Z,99.78
2023-04-16T00:52:48.143Z,100.00
2023-04-16T00:55:18.913Z,100.00
2023-04-16T00:57:47.169Z,99.27
2023-04-16T01:00:16.181Z,100.00
2023-04-16T01:02:44.293Z,99.82
2023-04-16T01:05:12.371Z,99.77
2023-04-16T01:07:40.305Z,99.64
2023-04-16T01:10:09.520Z,99.36
2023-04-16T01:12:38.801Z,99.72
2023-04-16T01:15:08.746Z,99.63
2023-04-16T01:17:36.804Z,99.52
2023-04-16T01:20:05.369Z,99.97
2023-04-16T01:22:34.674Z,99.60
2023-04-16T01:25:02.696Z,99.22
2023-04-16T01:27:31.184Z,99.40
2023-04-16T01:29:59.213Z,99.50
2023-04-16T01:32:27.180Z,99.68
2023-04-16T01:34:55.172Z,99.17
2023-04-16T01:37:23.134Z,99.11
2023-04-16T01:39:52.577Z,99.71
2023-04-16T01:42:20.477Z,98.82
2023-04-16T01:44:48.884Z,99.31
2023-04-16T01:47:16.939Z,99.49
2023-04-16T01:49:45.639Z,99.86
2023-04-16T01:52:13.560Z,99.90
2023-04-16T01:54:41.497Z,99.43
2023-04-16T01:57:11.114Z,99.44
2023-04-16T01:59:39.066Z,99.19
2023-04-16T02:02:11.318Z,99.06
2023-04-16T02:04:39.964Z,99.20
2023-04-16T02:07:09.296Z,99.22
2023-04-16T02:09:38.821Z,99.00
2023-04-16T02:12:06.962Z,98.63
2023-04-16T02:14:36.228Z,98.96
2023-04-16T02:17:04.246Z,98.98
2023-04-16T02:19:32.188Z,99.14
2023-04-16T02:22:01.404Z,99.20
2023-04-16T02:24:29.534Z,99.55
2023-04-16T02:26:58.151Z,98.63
2023-04-16T02:29:26.123Z,99.26
2023-04-16T02:31:55.469Z,99.28
2023-04-16T02:34:23.462Z,99.27
2023-04-16T02:36:51.381Z,99.62
2023-04-16T02:39:19.928Z,99.87
2023-04-16T02:41:47.959Z,99.90
2023-04-16T02:44:15.923Z,99.18
2023-04-16T02:46:43.808Z,99.28
2023-04-16T02:49:13.085Z,99.63
2023-04-16T02:51:41.092Z,99.62
2023-04-16T02:54:09.099Z,99.49
2023-04-16T02:56:37.138Z,99.64
2023-04-16T02:59:05.154Z,99.36
2023-04-16T03:01:33.698Z,99.72
2023-04-16T03:04:01.855Z,99.95
2023-04-16T03:06:31.362Z,98.94
2023-04-16T03:08:59.692Z,99.34
2023-04-16T03:11:27.706Z,98.45
2023-04-16T03:13:55.592Z,98.22
2023-04-16T03:16:23.673Z,98.56
2023-04-16T03:18:51.727Z,98.50
2023-04-16T03:21:19.675Z,98.58
2023-04-16T03:23:49.125Z,98.29
2023-04-16T03:26:17.106Z,98.65
2023-04-16T03:28:45.077Z,98.46
2023-04-16T03:31:13.132Z,98.04
2023-04-16T03:33:41.220Z,97.93
2023-04-16T03:36:11.140Z,97.49
2023-04-16T03:38:39.084Z,98.14
2023-04-16T03:41:08.384Z,97.88
2023-04-16T03:43:36.371Z,98.39
2023-04-16T03:46:04.308Z,98.12
2023-04-16T03:48:32.323Z,98.09
2023-04-16T03:51:00.592Z,97.74
2023-04-16T03:53:28.511Z,98.16
2023-04-16T03:55:56.629Z,97.76
2023-04-16T03:58:26.051Z,97.80
2023-04-16T04:00:55.205Z,98.50
2023-04-16T04:03:23.358Z,98.57
2023-04-16T04:05:51.485Z,98.11
2023-04-16T04:08:19.448Z,98.58
2023-04-16T04:10:47.407Z,99.42
2023-04-16T04:13:15.438Z,99.12
2023-04-16T04:15:45.472Z,98.85
2023-04-16T04:18:13.371Z,98.98
2023-04-16T04:20:42.005Z,99.57
2023-04-16T04:23:09.970Z,99.18
2023-04-16T04:25:37.916Z,98.92
2023-04-16T04:28:06.260Z,98.37
2023-04-16T04:30:35.646Z,98.42
2023-04-16T04:33:05.190Z,98.97
2023-04-16T04:35:33.522Z,98.98
2023-04-16T04:38:02.696Z,98.73
2023-04-16T04:40:30.761Z,99.16
2023-04-16T04:42:58.687Z,98.68
2023-04-16T04:45:26.896Z,98.52
2023-04-16T04:47:55.210Z,98.64
2023-04-16T04:50:24.577Z,98.31
2023-04-16T04:52:52.535Z,98.38
2023-04-16T04:55:20.801Z,98.12
2023-04-16T04:57:49.715Z,98.17
2023-04-16T05:00:17.724Z,98.15
2023-04-16T05:02:45.901Z,98.38
2023-04-16T05:05:13.924Z,98.75
2023-04-16T05:07:43.239Z,98.79
2023-04-16T05:10:11.723Z,99.83
2023-04-16T05:12:39.980Z,99.25
2023-04-16T05:15:09.606Z,99.68
2023-04-16T05:17:37.668Z,99.47
2023-04-16T05:20:06.764Z,98.62
2023-04-16T05:22:34.695Z,98.37
2023-04-16T05:25:04.176Z,98.33
2023-04-16T05:27:32.200Z,97.84
2023-04-16T05:30:00.226Z,97.58
2023-04-16T05:32:28.165Z,97.74
2023-04-16T05:34:56.225Z,98.13
2023-04-16T05:37:24.266Z,98.12
2023-04-16T05:39:52.170Z,97.90
2023-04-16T05:42:21.530Z,97.79
2023-04-16T05:44:49.449Z,97.78
2023-04-16T05:47:17.509Z,97.65
2023-04-16T05:49:45.647Z,97.52
2023-04-16T05:52:13.705Z,98.42
2023-04-16T05:54:41.656Z,98.50
2023-04-16T05:57:09.546Z,98.60
2023-04-16T05:59:38.846Z,98.63
2023-04-16T06:02:07.802Z,98.80
2023-04-16T06:04:37.217Z,98.54
2023-04-16T06:07:05.138Z,97.99
2023-04-16T06:09:33.104Z,97.73
2023-04-16T06:12:01.279Z,97.89
2023-04-16T06:14:29.339Z,97.76
2023-04-16T06:16:58.598Z,97.90
2023-04-16T06:19:26.565Z,97.30
2023-04-16T06:21:55.398Z,98.16
2023-04-16T06:24:23.359Z,98.04
2023-04-16T06:26:51.325Z,97.14
2023-04-16T06:29:19.372Z,97.95
2023-04-16T06:31:47.506Z,97.58
2023-04-16T06:34:16.896Z,97.34
2023-04-16T06:36:44.940Z,98.41
2023-04-16T06:39:12.819Z,98.03
2023-04-16T06:41:41.334Z,98.87
2023-04-16T06:44:09.314Z,98.69
2023-04-16T06:46:37.336Z,98.14
2023-04-16T06:49:05.631Z,98.58
2023-04-16T06:51:35.071Z,97.74
2023-04-16T06:54:03.324Z,98.51
2023-04-16T06:56:32.100Z,98.17
2023-04-16T06:59:00.936Z,98.30
2023-04-16T07:01:31.112Z,97.79
2023-04-16T07:03:59.504Z,98.17
2023-04-16T07:06:28.115Z,97.64
2023-04-16T07:08:57.446Z,97.70
2023-04-16T07:11:25.888Z,97.64
2023-04-16T07:13:54.091Z,98.29
2023-04-16T07:16:22.075Z,98.22
2023-04-16T07:18:49.991Z,97.68
2023-04-16T07:21:17.999Z,97.22
2023-04-16T07:23:45.927Z,97.92
2023-04-16T07:26:15.423Z,98.02
2023-04-16T07:28:43.406Z,98.11
2023-04-16T07:31:11.340Z,97.59
2023-04-16T07:33:39.332Z,97.44
2023-04-16T07:36:07.859Z,97.66
2023-04-16T07:38:35.853Z,98.13
2023-04-16T07:41:03.941Z,98.05
2023-04-16T07:43:33.230Z,97.41
2023-04-16T07:46:01.264Z,97.35
2023-04-16T07:48:29.215Z,97.99
2023-04-16T07:50:57.263Z,97.51
2023-04-16T07:53:25.212Z,97.49
2023-04-16T07:55:53.066Z,97.17
2023-04-16T07:58:21.028Z,96.73
2023-04-16T08:00:51.081Z,96.91
2023-04-16T08:03:19.426Z,97.53
2023-04-16T08:05:47.620Z,97.72
2023-04-16T08:08:15.619Z,96.92
2023-04-16T08:10:43.682Z,97.41
2023-04-16T08:13:11.599Z,97.10
2023-04-16T08:15:39.687Z,97.24
2023-04-16T08:18:12.817Z,97.66
2023-04-16T08:20:40.908Z,97.83
2023-04-16T08:23:08.967Z,96.99
2023-04-16T08:25:37.104Z,96.60
2023-04-16T08:28:05.712Z,96.04
2023-04-16T08:30:33.792Z,95.99
2023-04-16T08:33:02.037Z,96.24
2023-04-16T08:35:31.444Z,96.73
2023-04-16T08:38:02.160Z,95.67
2023-04-16T08:40:31.189Z,96.83
2023-04-16T08:43:03.863Z,97.28
2023-04-16T08:45:36.829Z,96.64
2023-04-16T08:48:07.656Z,96.27
2023-04-16T08:50:37.488Z,95.50
2023-04-16T08:53:07.766Z,95.08
2023-04-16T08:55:40.257Z,95.03
2023-04-16T08:58:15.444Z,95.93
2023-04-16T09:00:46.019Z,96.36
2023-04-16T09:03:14.643Z,95.57
2023-04-16T09:05:45.868Z,96.29
2023-04-16T09:08:14.582Z,95.60
2023-04-16T09:10:42.862Z,96.02
2023-04-16T09:13:13.387Z,95.88
2023-04-16T09:15:42.591Z,96.10
2023-04-16T09:18:12.098Z,96.93
2023-04-16T09:20:40.848Z,95.67
2023-04-16T09:23:11.695Z,95.15
2023-04-16T09:25:40.095Z,94.21
2023-04-16T09:28:08.120Z,95.35
2023-04-16T09:30:37.107Z,94.88
2023-04-16T09:33:17.414Z,94.05
2023-04-16T09:35:49.704Z,93.98
2023-04-16T09:38:20.004Z,93.63
2023-04-16T09:40:48.407Z,93.21
2023-04-16T09:43:19.087Z,93.11
2023-04-16T09:45:52.967Z,93.32
2023-04-16T09:48:31.088Z,92.95
2023-04-16T09:50:59.754Z,93.81
2023-04-16T09:53:31.612Z,93.69
2023-04-16T09:56:01.162Z,93.66
2023-04-16T09:58:30.028Z,92.78
2023-04-16T10:01:02.659Z,92.79
2023-04-16T10:03:32.752Z,93.50
2023-04-16T10:06:03.012Z,93.88
2023-04-16T10:08:32.246Z,94.41
2023-04-16T10:11:00.945Z,94.00
2023-04-16T10:13:30.986Z,93.91
2023-04-16T10:15:59.086Z,92.88
2023-04-16T10:18:27.988Z,93.05
2023-04-16T10:20:56.921Z,92.21
2023-04-16T10:23:25.040Z,91.17
2023-04-16T10:25:57.637Z,89.58
2023-04-16T10:28:27.021Z,89.37
2023-04-16T10:30:58.610Z,88.35
2023-04-16T10:33:30.301Z,87.61
2023-04-16T10:36:13.373Z,87.63
2023-04-16T10:38:43.090Z,86.07
2023-04-16T10:41:12.256Z,87.36
2023-04-16T10:43:42.582Z,89.72
2023-04-16T10:46:22.616Z,88.92
2023-04-16T10:48:57.490Z,90.16
2023-04-16T10:51:29.461Z,89.83
2023-04-16T10:53:59.628Z,88.87
2023-04-16T10:56:30.432Z,88.22
2023-04-16T10:58:58.501Z,89.18
2023-04-16T11:01:34.951Z,88.68
2023-04-16T11:04:31.122Z,86.99
2023-04-16T11:07:09.193Z,85.63
2023-04-16T11:09:59.593Z,86.29
2023-04-16T11:12:37.549Z,84.06
2023-04-16T11:15:11.608Z,84.98
2023-04-16T11:17:41.636Z,84.57
2023-04-16T11:20:19.542Z,84.92
2023-04-16T11:22:49.157Z,85.57
2023-04-16T11:25:21.914Z,87.17
2023-04-16T11:27:52.212Z,87.63
2023-04-16T11:30:30.419Z,87.91
2023-04-16T11:32:58.779Z,88.07
2023-04-16T11:35:27.200Z,86.60
2023-04-16T11:37:58.261Z,87.73
2023-04-16T11:40:30.386Z,87.88
2023-04-16T11:43:04.206Z,88.69
2023-04-16T11:45:32.358Z,87.82
2023-04-16T11:48:00.858Z,87.38
2023-04-16T11:50:30.064Z,87.00
2023-04-16T11:53:05.462Z,86.98
2023-04-16T11:55:33.778Z,87.30
2023-04-16T11:58:16.348Z,86.61
2023-04-16T12:00:45.275Z,86.65
2023-04-16T12:03:13.956Z,87.22
2023-04-16T12:05:42.567Z,87.62
2023-04-16T12:08:13.585Z,87.87
2023-04-16T12:10:59.686Z,87.16
2023-04-16T12:13:43.750Z,88.12
2023-04-16T12:16:21.791Z,88.32
2023-04-16T12:19:06.155Z,88.32
2023-04-16T12:21:42.515Z,87.22
2023-04-16T12:24:14.115Z,86.44
2023-04-16T12:26:44.701Z,86.99
2023-04-16T12:29:22.858Z,86.89
2023-04-16T12:31:53.501Z,86.71
2023-04-16T12:34:28.949Z,86.65
2023-04-16T12:37:11.301Z,86.89
2023-04-16T12:39:39.309Z,86.90
2023-04-16T12:42:11.174Z,86.85
2023-04-16T12:44:40.675Z,87.07
2023-04-16T12:47:08.805Z,88.28
2023-04-16T12:49:38.317Z,86.90
2023-04-16T12:52:06.623Z,87.32
2023-04-16T12:54:38.221Z,87.34
2023-04-16T12:57:06.246Z,86.38
2023-04-16T12:59:34.362Z,86.12
2023-04-16T13:02:12.038Z,86.16
2023-04-16T13:04:40.420Z,85.49
2023-04-16T13:07:14.816Z,85.45
2023-04-16T13:09:50.175Z,85.68
2023-04-16T13:12:18.098Z,84.94
2023-04-16T13:14:46.345Z,85.10
2023-04-16T13:17:15.676Z,84.58
2023-04-16T13:19:44.327Z,83.63
2023-04-16T13:22:15.543Z,83.88
2023-04-16T13:24:43.809Z,83.86
2023-04-16T13:27:13.387Z,83.19
2023-04-16T13:29:41.494Z,82.77
2023-04-16T13:32:13.885Z,81.57
2023-04-16T13:34:44.030Z,80.30
2023-04-16T13:37:15.247Z,81.02
2023-04-16T13:39:43.427Z,80.19
2023-04-16T13:42:11.352Z,81.05
2023-04-16T13:44:48.743Z,81.42
2023-04-16T13:47:19.039Z,81.29
2023-04-16T13:49:48.624Z,81.64
2023-04-16T13:52:16.780Z,81.90
2023-04-16T13:54:44.758Z,82.59
2023-04-16T13:57:12.919Z,81.47
2023-04-16T13:59:40.957Z,82.10
2023-04-16T14:02:10.608Z,81.83
2023-04-16T14:04:38.587Z,82.57
2023-04-16T14:07:10.564Z,81.79
2023-04-16T14:09:38.632Z,81.91
2023-04-16T14:12:07.719Z,81.93
2023-04-16T14:14:36.347Z,80.79
2023-04-16T14:17:04.394Z,81.70
2023-04-16T14:19:32.441Z,79.21
2023-04-16T14:22:00.530Z,79.58
2023-04-16T14:24:30.760Z,79.00
2023-04-16T14:26:58.796Z,78.41
2023-04-16T14:29:27.040Z,78.42
2023-04-16T14:31:55.278Z,78.63
2023-04-16T14:34:23.542Z,77.51
2023-04-16T14:36:51.937Z,77.47
2023-04-16T14:39:20.584Z,78.12
2023-04-16T14:41:49.908Z,77.68
2023-04-16T14:44:17.991Z,77.64
2023-04-16T14:46:46.349Z,76.86
2023-04-16T14:49:14.759Z,77.47
2023-04-16T14:51:50.192Z,77.69
2023-04-16T14:54:22.362Z,77.55
2023-04-16T14:56:52.421Z,76.81
2023-04-16T14:59:23.609Z,77.76
2023-04-16T15:01:52.333Z,77.93
2023-04-16T15:04:20.573Z,78.16
2023-04-16T15:06:49.923Z,78.58
2023-04-16T15:09:18.042Z,77.49
2023-04-16T15:11:46.137Z,76.81
2023-04-16T15:14:16.737Z,77.50
2023-04-16T15:16:46.549Z,76.65
2023-04-16T15:19:14.552Z,76.74
2023-04-16T15:21:42.667Z,76.41
2023-04-16T15:24:11.030Z,76.21
2023-04-16T15:26:39.399Z,75.88
2023-04-16T15:29:07.469Z,77.40
2023-04-16T15:31:36.848Z,76.76
2023-04-16T15:34:04.922Z,76.82
2023-04-16T15:36:38.496Z,76.79
2023-04-16T15:39:15.381Z,77.77
2023-04-16T15:41:57.534Z,77.78
2023-04-16T15:44:29.158Z,77.70
2023-04-16T15:46:58.666Z,77.70
2023-04-16T15:49:26.983Z,78.45
2023-04-16T15:51:55.568Z,78.13
2023-04-16T15:54:23.597Z,77.77
2023-04-16T15:56:52.565Z,78.03
2023-04-16T15:59:20.583Z,77.94
2023-04-16T16:01:48.567Z,78.17
2023-04-16T16:04:18.347Z,78.69
2023-04-16T16:06:46.631Z,80.03
2023-04-16T16:09:15.216Z,81.26
2023-04-16T16:11:45.956Z,81.54
2023-04-16T16:14:16.303Z,81.31
2023-04-16T16:16:46.318Z,82.61
2023-04-16T16:19:14.777Z,83.14
2023-04-16T16:21:45.647Z,82.46
2023-04-16T16:24:13.971Z,83.20
2023-04-16T16:26:42.399Z,83.78
2023-04-16T16:29:11.149Z,83.36
2023-04-16T16:31:39.889Z,83.39
2023-04-16T16:51:46.144Z,85.95
2023-04-16T16:54:16.764Z,86.44
2023-04-16T16:56:47.494Z,85.75
2023-04-16T16:59:16.847Z,86.40
2023-04-16T17:01:51.233Z,86.38
2023-04-16T17:04:21.849Z,86.25
2023-04-16T17:06:53.368Z,86.96
2023-04-16T17:09:23.532Z,87.17
2023-04-16T17:11:54.479Z,87.38
2023-04-16T17:14:22.576Z,88.01
2023-04-16T17:16:52.234Z,87.79
2023-04-16T17:19:22.726Z,87.91
2023-04-16T17:21:54.554Z,87.94
2023-04-16T17:24:24.612Z,88.31
2023-04-16T17:26:56.443Z,88.62
2023-04-16T17:29:27.657Z,88.52
2023-04-16T17:31:59.204Z,88.21
2023-04-16T17:34:30.381Z,88.59
2023-04-16T17:37:02.016Z,87.90
2023-04-16T17:39:31.934Z,88.47
2023-04-16T17:42:04.823Z,87.96
2023-04-16T17:44:32.884Z,88.05
2023-04-16T17:47:01.135Z,87.67
2023-04-16T17:49:29.243Z,87.17
2023-04-16T17:51:57.415Z,86.92
2023-04-16T17:54:41.400Z,86.12
2023-04-16T17:57:09.824Z,86.49
2023-04-16T17:59:37.947Z,86.77
2023-04-16T18:02:06.125Z,86.81
2023-04-16T18:04:34.804Z,86.64
2023-04-16T18:07:03.314Z,86.55
2023-04-16T18:09:31.725Z,86.96
2023-04-16T18:12:03.348Z,86.34
2023-04-16T18:14:31.452Z,86.16
2023-04-16T18:17:03.640Z,86.35
2023-04-16T18:19:33.084Z,86.50
2023-04-16T18:22:01.397Z,86.44
2023-04-16T18:24:37.942Z,86.84
2023-04-16T18:27:07.657Z,86.73
2023-04-16T18:29:35.936Z,87.13
2023-04-16T18:32:12.334Z,86.78
2023-04-16T18:34:41.164Z,86.90
2023-04-16T18:37:09.330Z,87.66
2023-04-16T18:39:40.523Z,86.66
2023-04-16T18:42:12.586Z,87.07
2023-04-16T18:44:42.780Z,87.10
2023-04-16T18:47:13.345Z,87.23
2023-04-16T18:49:42.530Z,87.23
2023-04-16T18:52:12.193Z,87.09
2023-04-16T18:54:42.349Z,86.67
2023-04-16T18:57:14.007Z,88.03
2023-04-16T18:59:43.810Z,87.30
2023-04-16T19:02:13.392Z,88.29
2023-04-16T19:04:43.793Z,87.15
2023-04-16T19:07:23.011Z,88.18
2023-04-16T19:09:52.325Z,87.87
2023-04-16T19:12:25.530Z,87.95
2023-04-16T19:14:54.930Z,88.24
2023-04-16T19:17:26.676Z,88.50
2023-04-16T19:20:11.672Z,88.40
2023-04-16T19:22:41.138Z,88.76
2023-04-16T19:25:11.777Z,89.02
2023-04-16T19:27:42.549Z,89.24
2023-04-16T19:30:12.832Z,89.77
2023-04-16T19:32:45.127Z,89.42
2023-04-16T19:35:14.909Z,89.24
2023-04-16T19:37:44.085Z,89.63
2023-04-16T19:40:13.802Z,89.54
2023-04-16T19:42:45.672Z,89.04
2023-04-16T19:45:17.886Z,89.29
2023-04-16T19:47:49.025Z,89.56
2023-04-16T19:50:18.739Z,89.08
2023-04-16T19:52:46.969Z,89.60
2023-04-16T19:55:15.039Z,89.66
2023-04-16T19:57:49.061Z,89.44
2023-04-16T20:00:17.998Z,89.32
2023-04-16T20:02:46.237Z,89.38
2023-04-16T20:05:14.286Z,89.66
2023-04-16T20:07:43.530Z,89.88
2023-04-16T20:10:22.505Z,90.08
2023-04-16T20:12:53.976Z,89.21
2023-04-16T20:15:23.197Z,89.77
2023-04-16T20:17:54.038Z,89.53
2023-04-16T20:20:23.900Z,90.01
2023-04-16T20:22:59.900Z,90.02
2023-04-16T20:25:29.613Z,89.87
2023-04-16T20:28:00.705Z,90.44
2023-04-16T20:30:31.204Z,90.70
2023-04-16T20:33:04.430Z,90.40
2023-04-16T20:35:33.674Z,90.75
2023-04-16T20:38:04.253Z,90.15
2023-04-16T20:40:33.513Z,90.81
2023-04-16T20:43:41.240Z,90.80
2023-04-16T20:46:13.749Z,91.37
2023-04-16T20:48:41.962Z,91.33
2023-04-16T20:51:13.399Z,91.84
2023-04-16T20:53:41.591Z,91.69
2023-04-16T20:56:12.090Z,91.66
2023-04-16T20:58:42.860Z,91.49
2023-04-16T21:01:11.182Z,92.20
2023-04-16T21:03:41.849Z,92.18
2023-04-16T21:06:12.672Z,92.60
2023-04-16T21:08:41.169Z,92.40
2023-04-16T21:11:09.245Z,92.47
2023-04-16T21:13:37.278Z,92.36
2023-04-16T21:16:08.210Z,92.63
2023-04-16T21:18:36.642Z,92.29
2023-04-16T21:21:05.100Z,92.34
2023-04-16T21:23:33.160Z,92.46
2023-04-16T21:26:01.287Z,92.35
2023-04-16T21:28:29.427Z,92.18
2023-04-16T21:30:57.476Z,92.70
2023-04-16T21:33:26.891Z,92.38
2023-04-16T21:35:55.099Z,92.20
2023-04-16T21:38:23.558Z,92.20
2023-04-16T21:40:53.945Z,93.09
2023-04-16T21:43:22.125Z,92.90
2023-04-16T21:45:52.887Z,93.19
2023-04-16T21:48:21.161Z,93.62
2023-04-16T21:50:57.995Z,93.13
2023-04-16T21:53:27.927Z,93.10
2023-04-16T21:55:56.128Z,92.75
2023-04-16T21:58:25.627Z,92.96
2023-04-16T22:00:53.779Z,92.85
2023-04-16T22:03:26.201Z,92.71
2023-04-16T22:06:00.832Z,93.11
2023-04-16T22:08:29.520Z,92.79
2023-04-16T22:10:59.348Z,92.57
2023-04-16T22:13:27.528Z,93.14
2023-04-16T22:15:57.702Z,92.94
2023-04-16T22:18:26.469Z,92.97
2023-04-16T22:20:54.971Z,92.13
2023-04-16T22:23:25.307Z,92.41
2023-04-16T22:25:56.318Z,91.90
2023-04-16T22:28:24.647Z,91.89
2023-04-16T22:30:52.784Z,92.18
2023-04-16T22:33:20.943Z,91.78
2023-04-16T22:35:48.942Z,91.40
2023-04-16T22:38:17.485Z,92.32
2023-04-16T22:40:48.874Z,92.17
2023-04-16T22:43:17.674Z,92.67
2023-04-16T22:45:47.203Z,92.10
2023-04-16T22:48:15.519Z,91.66
2023-04-16T22:50:48.384Z,91.71
2023-04-16T22:53:16.632Z,91.55
2023-04-16T22:55:46.177Z,91.02
2023-04-16T22:58:14.160Z,91.22
2023-04-16T23:00:42.221Z,91.01
2023-04-16T23:03:10.557Z,91.01
2023-04-16T23:05:38.482Z,90.75
2023-04-16T23:08:09.100Z,90.44
2023-04-16T23:10:37.271Z,90.77
2023-04-16T23:13:06.671Z,90.73
2023-04-16T23:15:35.052Z,90.71
2023-04-16T23:18:03.266Z,90.41
2023-04-16T23:20:31.329Z,90.70
2023-04-16T23:22:59.376Z,91.07
2023-04-16T23:25:27.456Z,91.01
2023-04-16T23:27:56.630Z,90.80
2023-04-16T23:30:26.142Z,90.22
2023-04-16T23:32:54.181Z,89.83
2023-04-16T23:35:23.032Z,89.80
2023-04-16T23:37:51.494Z,89.92
2023-04-16T23:40:19.789Z,90.39
2023-04-16T23:42:47.970Z,90.15
2023-04-16T23:45:16.578Z,90.13
2023-04-16T23:47:46.107Z,89.59
2023-04-16T23:50:14.570Z,90.20
2023-04-16T23:52:42.745Z,89.93
2023-04-16T23:55:11.050Z,89.40
2023-04-16T23:57:39.155Z,88.94
